createdAt,value
2018-01-25T00:01:59.174Z,5.30
2018-01-25T00:04:27.550Z,5.30
2018-01-25T00:06:55.148Z,5.30
2018-01-25T00:09:23.544Z,5.20
2018-01-25T00:11:51.129Z,5.20
2018-01-25T00:14:18.782Z,5.10
2018-01-25T00:16:46.551Z,5.00
2018-01-25T00:19:14.159Z,4.90
2018-01-25T00:21:41.780Z,4.80
2018-01-25T00:24:09.378Z,4.80
2018-01-25T00:26:36.973Z,4.80
2018-01-25T00:29:04.579Z,4.80
2018-01-25T00:31:32.179Z,4.70
2018-01-25T00:33:59.789Z,4.70
2018-01-25T00:36:28.205Z,4.60
2018-01-25T00:38:56.645Z,4.60
2018-01-25T00:41:25.013Z,4.60
2018-01-25T00:43:53.515Z,4.70
2018-01-25T00:46:21.877Z,4.70
2018-01-25T00:48:49.487Z,4.60
2018-01-25T00:51:17.105Z,4.70
2018-01-25T00:53:46.217Z,4.30
2018-01-25T00:56:14.615Z,4.20
2018-01-25T00:58:42.991Z,4.10
2018-01-25T01:01:10.607Z,4.10
2018-01-25T01:03:38.211Z,4.00
2018-01-25T01:06:06.642Z,3.80
2018-01-25T01:08:34.277Z,3.80
2018-01-25T01:11:02.640Z,3.60
2018-01-25T01:13:30.268Z,3.60
2018-01-25T01:15:57.856Z,3.50
2018-01-25T01:18:25.442Z,3.50
2018-01-25T01:20:53.796Z,3.30
2018-01-25T01:23:21.382Z,3.30
2018-01-25T01:25:49.008Z,3.40
2018-01-25T01:28:16.598Z,3.40
2018-01-25T01:30:44.224Z,3.50
2018-01-25T01:33:11.808Z,3.50
2018-01-25T01:35:39.528Z,3.60
2018-01-25T01:38:07.870Z,3.60
2018-01-25T01:40:35.466Z,3.60
2018-01-25T01:43:03.090Z,3.50
2018-01-25T01:45:30.681Z,3.40
2018-01-25T01:47:58.291Z,3.30
2018-01-25T01:50:26.646Z,3.20
2018-01-25T01:52:54.234Z,3.20
2018-01-25T01:55:22.765Z,3.10
2018-01-25T01:57:50.589Z,3.10
2018-01-25T02:00:18.929Z,3.00
2018-01-25T02:02:46.545Z,3.00
2018-01-25T02:05:14.896Z,2.90
2018-01-25T02:07:42.533Z,2.90
2018-01-25T02:10:10.166Z,2.80
2018-01-25T02:12:37.995Z,2.90
2018-01-25T02:15:05.591Z,2.90
2018-01-25T02:17:33.955Z,2.80
2018-01-25T02:20:01.567Z,2.80
2018-01-25T02:22:29.191Z,2.70
2018-01-25T02:24:56.775Z,2.60
2018-01-25T02:27:25.153Z,2.50
2018-01-25T02:29:53.521Z,2.40
2018-01-25T02:32:21.150Z,2.40
2018-01-25T02:34:48.757Z,2.40
2018-01-25T02:37:17.165Z,2.40
2018-01-25T02:39:44.783Z,2.40
2018-01-25T02:42:12.371Z,2.40
2018-01-25T02:44:39.975Z,2.50
2018-01-25T02:47:07.562Z,2.50
2018-01-25T02:49:35.332Z,2.60
2018-01-25T02:52:02.915Z,2.70
2018-01-25T02:54:30.555Z,2.80
2018-01-25T02:56:58.174Z,2.90
2018-01-25T02:59:26.660Z,3.00
2018-01-25T03:01:55.095Z,3.10
2018-01-25T03:04:22.742Z,3.10
2018-01-25T03:06:50.329Z,3.20
2018-01-25T03:09:17.986Z,3.20
2018-01-25T03:11:45.724Z,3.20
2018-01-25T03:14:14.084Z,3.20
2018-01-25T03:16:41.694Z,3.20
2018-01-25T03:19:09.274Z,3.10
2018-01-25T03:21:37.154Z,3.20
2018-01-25T03:24:04.756Z,3.10
2018-01-25T03:26:32.357Z,3.10
2018-01-25T03:28:59.956Z,3.10
2018-01-25T03:31:27.556Z,3.10
2018-01-25T03:33:56.078Z,3.10
2018-01-25T03:36:23.672Z,3.00
2018-01-25T03:38:51.282Z,3.00
2018-01-25T03:41:19.636Z,3.00
2018-01-25T03:43:48.002Z,3.00
2018-01-25T03:46:15.601Z,3.00
2018-01-25T03:48:43.969Z,3.10
2018-01-25T03:51:12.466Z,3.10
2018-01-25T03:53:40.955Z,3.10
2018-01-25T03:56:09.354Z,3.10
2018-01-25T03:58:37.723Z,3.20
2018-01-25T04:01:06.077Z,3.10
2018-01-25T04:03:33.689Z,3.10
2018-01-25T04:06:01.369Z,3.20
2018-01-25T04:08:28.979Z,3.20
2018-01-25T04:10:56.583Z,3.20
2018-01-25T04:13:25.067Z,3.20
2018-01-25T04:15:53.457Z,3.30
2018-01-25T04:18:21.065Z,3.30
2018-01-25T04:20:48.685Z,3.30
2018-01-25T04:23:17.049Z,3.30
2018-01-25T04:25:44.670Z,3.40
2018-01-25T04:28:12.260Z,3.40
2018-01-25T04:30:40.413Z,3.40
2018-01-25T04:33:08.003Z,3.40
2018-01-25T04:35:36.347Z,3.50
2018-01-25T04:38:03.965Z,3.40
2018-01-25T04:40:31.586Z,3.50
2018-01-25T04:42:59.182Z,3.40
2018-01-25T04:45:26.774Z,3.40
2018-01-25T04:47:55.255Z,3.40
2018-01-25T04:50:23.631Z,3.40
2018-01-25T04:52:52.038Z,3.30
2018-01-25T04:55:20.402Z,3.30
2018-01-25T04:57:48.018Z,3.30
2018-01-25T05:00:15.648Z,3.30
2018-01-25T05:02:44.106Z,3.20
2018-01-25T05:05:13.216Z,3.10
2018-01-25T05:07:40.836Z,3.10
2018-01-25T05:10:08.420Z,3.10
2018-01-25T05:12:36.070Z,3.00
2018-01-25T05:15:03.666Z,2.90
2018-01-25T05:17:41.950Z,2.90
2018-01-25T05:20:09.528Z,2.90
2018-01-25T05:22:37.122Z,2.90
2018-01-25T05:25:05.482Z,2.90
2018-01-25T05:27:33.879Z,3.00
2018-01-25T05:30:02.242Z,2.90
2018-01-25T05:32:29.883Z,2.90
2018-01-25T05:34:57.539Z,3.00
2018-01-25T05:37:25.132Z,3.10
2018-01-25T05:39:52.743Z,3.20
2018-01-25T05:42:21.107Z,3.30
2018-01-25T05:44:48.773Z,3.30
2018-01-25T05:47:17.138Z,3.40
2018-01-25T05:49:44.760Z,3.40
2018-01-25T05:52:12.367Z,3.40
2018-01-25T05:54:40.003Z,3.40
2018-01-25T05:57:07.599Z,3.40
2018-01-25T05:59:35.331Z,3.40
2018-01-25T06:02:03.055Z,3.40
2018-01-25T06:04:30.663Z,3.50
2018-01-25T06:06:58.468Z,3.40
2018-01-25T06:09:26.367Z,3.40
2018-01-25T06:11:54.739Z,3.40
2018-01-25T06:14:22.331Z,3.40
2018-01-25T06:16:49.981Z,3.40
2018-01-25T06:19:18.173Z,3.50
2018-01-25T06:21:46.657Z,3.40
2018-01-25T06:24:15.116Z,3.40
2018-01-25T06:26:42.774Z,3.40
2018-01-25T06:29:10.374Z,3.40
2018-01-25T06:31:38.771Z,3.30
2018-01-25T06:34:07.178Z,3.30
2018-01-25T06:36:34.773Z,3.30
2018-01-25T06:39:02.407Z,3.30
2018-01-25T06:41:30.032Z,3.20
2018-01-25T06:43:58.390Z,3.20
2018-01-25T06:46:26.014Z,3.20
2018-01-25T06:48:53.756Z,3.30
2018-01-25T06:51:22.144Z,3.30
2018-01-25T06:53:50.532Z,3.30
2018-01-25T06:56:18.891Z,3.20
2018-01-25T06:58:46.498Z,3.20
2018-01-25T07:01:14.088Z,3.20
2018-01-25T07:03:41.714Z,3.20
2018-01-25T07:06:10.218Z,3.40
2018-01-25T07:08:37.928Z,3.40
2018-01-25T07:11:05.515Z,3.50
2018-01-25T07:13:33.125Z,3.60
2018-01-25T07:16:00.731Z,3.60
2018-01-25T07:18:29.134Z,3.90
2018-01-25T07:20:57.521Z,4.30
2018-01-25T07:23:26.014Z,4.70
2018-01-25T07:25:54.400Z,5.20
2018-01-25T07:28:22.802Z,5.60
2018-01-25T07:30:51.078Z,5.60
2018-01-25T07:33:18.677Z,5.90
2018-01-25T07:35:46.315Z,6.10
2018-01-25T07:38:13.929Z,6.30
2018-01-25T07:40:43.071Z,6.50
2018-01-25T07:43:10.697Z,6.50
2018-01-25T07:45:39.189Z,7.00
2018-01-25T07:48:06.806Z,7.00
2018-01-25T07:50:34.409Z,7.00
2018-01-25T07:53:01.999Z,7.00
2018-01-25T07:55:30.392Z,6.80
2018-01-25T07:58:14.353Z,6.70
2018-01-25T08:00:41.976Z,6.70
2018-01-25T08:03:09.579Z,6.60
2018-01-25T08:05:37.265Z,6.50
2018-01-25T08:08:04.873Z,6.40
2018-01-25T08:10:32.511Z,6.20
2018-01-25T08:13:05.807Z,6.10
2018-01-25T08:15:33.419Z,6.10
2018-01-25T08:18:01.793Z,6.10
2018-01-25T08:20:29.416Z,6.00
2018-01-25T08:22:57.007Z,6.10
2018-01-25T08:25:24.669Z,6.10
2018-01-25T08:27:52.284Z,6.10
2018-01-25T08:30:19.881Z,6.20
2018-01-25T08:32:47.527Z,6.30
2018-01-25T08:35:15.123Z,6.30
2018-01-25T08:37:42.742Z,6.40
2018-01-25T08:40:10.338Z,6.40
2018-01-25T08:42:37.966Z,6.40
2018-01-25T08:45:06.520Z,6.20
2018-01-25T08:47:35.644Z,6.30
2018-01-25T08:50:04.014Z,6.40
2018-01-25T08:52:31.628Z,6.30
2018-01-25T08:54:59.244Z,6.60
2018-01-25T08:57:27.652Z,7.10
2018-01-25T08:59:56.054Z,7.40
2018-01-25T09:02:24.490Z,7.50
2018-01-25T09:04:52.202Z,7.50
2018-01-25T09:07:19.795Z,7.50
2018-01-25T09:09:47.438Z,7.70
2018-01-25T09:12:15.044Z,7.90
2018-01-25T09:14:42.673Z,8.20
2018-01-25T09:17:10.289Z,8.50
2018-01-25T09:19:37.896Z,8.70
2018-01-25T09:22:05.729Z,8.90
2018-01-25T09:24:33.351Z,8.90
2018-01-25T09:27:01.017Z,8.90
2018-01-25T09:29:29.355Z,8.90
2018-01-25T09:31:57.734Z,8.90
2018-01-25T09:34:27.040Z,8.90
2018-01-25T09:36:54.644Z,8.90
2018-01-25T09:39:22.247Z,8.90
2018-01-25T09:41:49.870Z,8.90
2018-01-25T09:44:17.510Z,9.00
2018-01-25T09:46:45.874Z,9.20
2018-01-25T09:49:13.479Z,9.20
2018-01-25T09:51:41.150Z,9.50
2018-01-25T09:54:08.719Z,9.70
2018-01-25T09:56:36.341Z,10.00
2018-01-25T09:59:04.047Z,10.30
2018-01-25T10:01:31.679Z,10.60
2018-01-25T10:04:00.055Z,11.50
2018-01-25T10:06:28.150Z,11.40
2018-01-25T10:08:56.520Z,11.80
2018-01-25T10:11:24.119Z,11.80
2018-01-25T10:13:51.775Z,12.00
2018-01-25T10:16:19.371Z,12.30
2018-01-25T10:18:47.003Z,12.60
2018-01-25T10:21:15.368Z,13.20
2018-01-25T10:23:43.008Z,13.20
2018-01-25T10:26:10.659Z,13.60
2018-01-25T10:28:38.269Z,13.90
2018-01-25T10:31:06.658Z,14.70
2018-01-25T10:33:35.035Z,14.90
2018-01-25T10:36:03.425Z,15.40
2018-01-25T10:38:31.786Z,15.50
2018-01-25T10:40:59.402Z,15.50
2018-01-25T10:43:27.000Z,15.80
2018-01-25T10:45:54.625Z,15.80
2018-01-25T10:48:22.404Z,16.00
2018-01-25T10:50:50.023Z,16.10
2018-01-25T10:53:18.437Z,16.70
2018-01-25T10:55:46.037Z,16.60
2018-01-25T10:58:13.674Z,16.80
2018-01-25T11:00:47.018Z,16.90
2018-01-25T11:03:14.667Z,17.10
2018-01-25T11:05:42.279Z,17.20
2018-01-25T11:08:10.734Z,17.80
2018-01-25T11:10:38.420Z,17.70
2018-01-25T11:13:06.778Z,18.20
2018-01-25T11:15:34.419Z,18.20
2018-01-25T11:18:02.016Z,18.30
2018-01-25T11:20:29.817Z,18.40
2018-01-25T11:22:58.228Z,18.70
2018-01-25T11:25:25.841Z,18.70
2018-01-25T11:27:53.454Z,18.40
2018-01-25T11:30:21.076Z,18.40
2018-01-25T11:32:48.941Z,18.50
2018-01-25T11:35:16.535Z,18.60
2018-01-25T11:37:44.888Z,19.20
2018-01-25T11:40:12.541Z,19.10
2018-01-25T11:42:40.149Z,19.20
2018-01-25T11:45:08.578Z,18.90
2018-01-25T11:47:36.188Z,18.90
2018-01-25T11:50:03.934Z,19.10
2018-01-25T11:52:31.545Z,19.40
2018-01-25T11:54:59.903Z,19.20
2018-01-25T11:57:27.538Z,19.20
2018-01-25T11:59:55.134Z,19.10
2018-01-25T12:02:24.592Z,19.10
2018-01-25T12:04:52.175Z,19.20
2018-01-25T12:07:19.899Z,19.40
2018-01-25T12:09:48.286Z,19.80
2018-01-25T12:12:16.664Z,20.10
2018-01-25T12:14:45.068Z,20.20
2018-01-25T12:17:12.660Z,20.20
2018-01-25T12:19:40.285Z,20.20
2018-01-25T12:22:07.899Z,20.00
2018-01-25T12:24:35.532Z,19.80
2018-01-25T12:27:03.183Z,19.80
2018-01-25T12:29:31.540Z,19.40
2018-01-25T12:31:59.300Z,19.40
2018-01-25T12:34:26.922Z,19.30
2018-01-25T12:36:54.683Z,19.10
2018-01-25T12:39:22.289Z,18.50
2018-01-25T12:41:49.908Z,18.40
2018-01-25T12:44:17.546Z,18.30
2018-01-25T12:46:45.145Z,18.20
2018-01-25T12:49:12.808Z,18.10
2018-01-25T12:51:40.436Z,18.00
2018-01-25T12:54:08.799Z,17.50
2018-01-25T12:56:37.183Z,17.30
2018-01-25T12:59:04.790Z,17.20
2018-01-25T13:01:33.172Z,17.20
2018-01-25T13:04:01.533Z,17.20
2018-01-25T13:06:29.213Z,17.20
2018-01-25T13:08:56.821Z,17.20
2018-01-25T13:11:24.409Z,17.20
2018-01-25T13:13:52.020Z,17.20
2018-01-25T13:16:20.427Z,16.90
2018-01-25T13:18:48.325Z,16.80
2018-01-25T13:21:15.911Z,16.90
2018-01-25T13:23:43.667Z,16.60
2018-01-25T13:26:11.277Z,16.30
2018-01-25T13:28:39.641Z,15.50
2018-01-25T13:31:07.265Z,15.50
2018-01-25T13:33:41.243Z,14.90
2018-01-25T13:36:09.615Z,14.70
2018-01-25T13:38:37.985Z,14.40
2018-01-25T13:41:05.598Z,14.40
2018-01-25T13:43:33.293Z,14.20
2018-01-25T13:46:01.045Z,14.00
2018-01-25T13:48:28.666Z,13.80
2018-01-25T13:50:57.026Z,13.50
2018-01-25T13:53:26.180Z,13.30
2018-01-25T13:55:53.840Z,13.40
2018-01-25T13:58:21.450Z,13.30
2018-01-25T14:00:49.077Z,13.20
2018-01-25T14:03:16.698Z,13.10
2018-01-25T14:05:44.633Z,13.00
2018-01-25T14:08:12.247Z,13.00
2018-01-25T14:10:40.648Z,12.80
2018-01-25T14:13:08.310Z,12.80
2018-01-25T14:15:36.697Z,12.60
2018-01-25T14:18:05.324Z,12.60
2018-01-25T14:20:32.922Z,12.50
2018-01-25T14:23:01.364Z,12.50
2018-01-25T14:25:28.976Z,12.50
2018-01-25T14:27:56.600Z,12.50
2018-01-25T14:30:24.235Z,12.50
2018-01-25T14:32:52.743Z,12.70
2018-01-25T14:35:20.367Z,12.70
2018-01-25T14:37:48.736Z,12.50
2018-01-25T14:40:16.432Z,12.40
2018-01-25T14:42:44.806Z,12.30
2018-01-25T14:45:13.210Z,12.20
2018-01-25T14:47:41.587Z,12.00
2018-01-25T14:50:09.192Z,12.00
2018-01-25T14:52:36.901Z,11.90
2018-01-25T14:55:05.378Z,11.60
2018-01-25T14:57:33.009Z,11.60
2018-01-25T15:00:00.613Z,11.50
2018-01-25T15:02:28.239Z,11.50
2018-01-25T15:04:55.850Z,11.30
2018-01-25T15:07:24.194Z,11.30
2018-01-25T15:09:51.842Z,11.20
2018-01-25T15:12:19.559Z,11.20
2018-01-25T15:14:47.150Z,11.20
2018-01-25T15:17:14.788Z,11.20
2018-01-25T15:19:43.181Z,11.00
2018-01-25T15:22:11.592Z,11.00
2018-01-25T15:24:39.227Z,10.90
2018-01-25T15:27:07.635Z,10.80
2018-01-25T15:29:35.275Z,10.80
2018-01-25T15:32:02.879Z,10.80
2018-01-25T15:34:31.296Z,10.60
2018-01-25T15:36:58.981Z,10.50
2018-01-25T15:39:26.631Z,10.50
2018-01-25T15:41:54.259Z,10.40
2018-01-25T15:44:21.907Z,10.30
2018-01-25T15:46:50.310Z,10.20
2018-01-25T15:49:18.720Z,10.10
2018-01-25T15:51:47.087Z,10.00
2018-01-25T15:54:14.694Z,10.00
2018-01-25T15:56:42.339Z,9.90
2018-01-25T15:59:09.930Z,9.90
2018-01-25T16:01:37.566Z,9.80
2018-01-25T16:04:05.186Z,9.70
2018-01-25T16:06:33.590Z,9.60
2018-01-25T16:09:01.204Z,9.60
2018-01-25T16:11:28.874Z,9.50
2018-01-25T16:13:56.575Z,9.40
2018-01-25T16:16:24.976Z,9.30
2018-01-25T16:18:52.602Z,9.20
2018-01-25T16:21:20.222Z,9.20
2018-01-25T16:23:47.842Z,9.10
2018-01-25T16:26:16.211Z,9.00
2018-01-25T16:28:43.828Z,9.00
2018-01-25T16:31:11.614Z,8.90
2018-01-25T16:33:39.236Z,8.80
2018-01-25T16:36:07.647Z,8.70
2018-01-25T16:38:35.262Z,8.60
2018-01-25T16:41:02.909Z,8.60
2018-01-25T16:43:30.518Z,8.60
2018-01-25T16:45:58.901Z,8.40
2018-01-25T16:48:27.291Z,8.30
2018-01-25T16:50:55.685Z,8.20
2018-01-25T16:53:23.375Z,8.20
2018-01-25T16:55:50.987Z,8.10
2018-01-25T16:58:19.387Z,8.10
2018-01-25T17:00:47.792Z,7.90
2018-01-25T17:03:15.423Z,7.90
2018-01-25T17:05:43.809Z,7.80
2018-01-25T17:08:12.219Z,7.80
2018-01-25T17:10:40.007Z,7.70
2018-01-25T17:13:07.611Z,7.70
2018-01-25T17:15:35.271Z,7.60
2018-01-25T17:18:02.976Z,7.60
2018-01-25T17:20:31.397Z,7.50
2018-01-25T17:22:59.057Z,7.50
2018-01-25T17:25:26.680Z,7.50
2018-01-25T17:27:55.124Z,7.30
2018-01-25T17:30:22.735Z,7.30
2018-01-25T17:32:51.135Z,7.20
2018-01-25T17:35:18.764Z,7.20
2018-01-25T17:37:47.810Z,7.10
2018-01-25T17:40:15.527Z,7.10
2018-01-25T17:42:43.149Z,7.10
2018-01-25T17:45:10.805Z,7.00
2018-01-25T17:47:38.479Z,7.00
2018-01-25T17:50:06.107Z,7.00
2018-01-25T17:52:33.780Z,7.00
2018-01-25T17:55:02.266Z,6.90
2018-01-25T17:57:29.892Z,6.90
2018-01-25T17:59:57.537Z,6.90
2018-01-25T18:02:25.185Z,6.90
2018-01-25T18:04:56.966Z,6.90
2018-01-25T18:07:24.590Z,6.80
2018-01-25T18:09:53.134Z,6.70
2018-01-25T18:12:20.756Z,6.70
2018-01-25T18:14:49.112Z,6.70
2018-01-25T18:17:16.743Z,6.70
2018-01-25T18:19:44.350Z,6.70
2018-01-25T18:22:12.755Z,6.60
2018-01-25T18:24:40.366Z,6.60
2018-01-25T18:27:08.030Z,6.60
2018-01-25T18:29:35.773Z,6.60
2018-01-25T18:32:03.413Z,6.60
2018-01-25T18:34:31.850Z,6.50
2018-01-25T18:36:59.524Z,6.50
2018-01-25T18:39:27.178Z,6.50
2018-01-25T18:41:54.874Z,6.40
2018-01-25T18:44:22.717Z,6.40
2018-01-25T18:46:50.469Z,6.40
2018-01-25T18:49:18.165Z,6.30
2018-01-25T18:51:45.855Z,6.30
2018-01-25T18:54:14.372Z,6.30
2018-01-25T18:56:42.032Z,6.20
2018-01-25T18:59:10.406Z,6.20
2018-01-25T19:01:39.344Z,6.10
2018-01-25T19:04:07.029Z,6.10
2018-01-25T19:06:34.730Z,6.10
2018-01-25T19:09:03.253Z,6.00
2018-01-25T19:11:30.920Z,6.00
2018-01-25T19:13:58.660Z,6.00
2018-01-25T19:16:27.853Z,5.90
2018-01-25T19:18:55.576Z,5.90
2018-01-25T19:21:24.048Z,5.80
2018-01-25T19:23:51.730Z,5.80
2018-01-25T19:26:19.415Z,5.80
2018-01-25T19:28:47.156Z,5.80
2018-01-25T19:31:15.842Z,5.80
2018-01-25T19:33:43.610Z,5.80
2018-01-25T19:36:11.494Z,5.70
2018-01-25T19:38:39.194Z,5.70
2018-01-25T19:41:06.888Z,5.60
2018-01-25T19:43:34.576Z,5.60
2018-01-25T19:46:02.338Z,5.50
2018-01-25T19:48:30.458Z,5.50
2018-01-25T19:50:58.300Z,5.40
2018-01-25T19:53:26.605Z,5.40
2018-01-25T19:55:54.345Z,5.30
2018-01-25T19:58:22.057Z,5.30
2018-01-25T20:00:51.335Z,5.30
2018-01-25T20:03:19.047Z,5.30
2018-01-25T20:05:47.485Z,5.30
2018-01-25T20:08:15.145Z,5.30
2018-01-25T20:10:43.093Z,5.30
2018-01-25T20:13:11.550Z,5.30
2018-01-25T20:15:39.260Z,5.20
2018-01-25T20:18:06.967Z,5.20
2018-01-25T20:20:34.588Z,5.20
2018-01-25T20:23:02.318Z,5.10
2018-01-25T20:25:29.987Z,5.00
2018-01-25T20:27:58.437Z,4.90
2018-01-25T20:30:26.133Z,4.90
2018-01-25T20:32:54.597Z,4.80
2018-01-25T20:35:22.593Z,4.80
2018-01-25T20:37:50.246Z,4.70
2018-01-25T20:40:17.949Z,4.70
2018-01-25T20:42:46.413Z,4.60
2018-01-25T20:45:14.947Z,4.60
2018-01-25T20:47:42.655Z,4.60
2018-01-25T20:50:11.209Z,4.60
2018-01-25T20:52:38.909Z,4.60
2018-01-25T20:55:06.612Z,4.60
2018-01-25T20:57:35.555Z,4.40
2018-01-25T21:00:03.259Z,4.40
2018-01-25T21:02:30.933Z,4.40
2018-01-25T21:04:58.649Z,4.30
2018-01-25T21:07:26.354Z,4.30
2018-01-25T21:09:54.813Z,4.20
2018-01-25T21:12:22.558Z,4.30
2018-01-25T21:14:50.308Z,4.30
2018-01-25T21:17:18.100Z,4.30
2018-01-25T21:19:45.760Z,4.30
2018-01-25T21:22:13.507Z,4.20
2018-01-25T21:24:41.978Z,4.20
2018-01-25T21:27:09.632Z,4.10
2018-01-25T21:29:37.307Z,4.10
2018-01-25T21:32:04.914Z,4.10
2018-01-25T21:34:32.692Z,4.10
2018-01-25T21:37:00.362Z,4.10
2018-01-25T21:39:28.202Z,4.10
2018-01-25T21:41:55.818Z,4.10
2018-01-25T21:44:23.480Z,4.10
2018-01-25T21:46:51.140Z,4.10
2018-01-25T21:49:18.808Z,4.10
2018-01-25T21:51:46.512Z,4.00
2018-01-25T21:54:14.178Z,4.00
2018-01-25T21:56:42.158Z,4.10
2018-01-25T21:59:09.826Z,4.10
2018-01-25T22:01:37.476Z,4.10
2018-01-25T22:04:05.886Z,4.20
2018-01-25T22:06:34.322Z,4.10
2018-01-25T22:09:01.937Z,4.10
2018-01-25T22:11:30.300Z,4.00
2018-01-25T22:13:57.940Z,4.00
2018-01-25T22:16:25.550Z,4.00
2018-01-25T22:18:53.174Z,3.90
2018-01-25T22:21:20.841Z,3.90
2018-01-25T22:23:48.457Z,3.80
2018-01-25T22:26:16.886Z,3.60
2018-01-25T22:28:44.513Z,3.60
2018-01-25T22:31:12.889Z,3.60
2018-01-25T22:33:41.265Z,3.60
2018-01-25T22:36:09.645Z,3.70
2018-01-25T22:38:38.051Z,3.70
2018-01-25T22:41:06.410Z,3.80
2018-01-25T22:43:34.057Z,3.80
2018-01-25T22:46:01.653Z,3.80
2018-01-25T22:48:30.053Z,3.90
2018-01-25T22:50:57.642Z,3.90
2018-01-25T22:53:25.320Z,3.90
2018-01-25T22:55:52.939Z,4.00
2018-01-25T22:58:21.291Z,3.90
2018-01-25T23:00:49.691Z,3.90
2018-01-25T23:03:17.270Z,3.90
2018-01-25T23:05:45.670Z,3.50
2018-01-25T23:08:13.402Z,3.50
2018-01-25T23:10:41.769Z,3.20
2018-01-25T23:13:09.388Z,3.20
2018-01-25T23:15:36.973Z,3.10
2018-01-25T23:18:04.594Z,3.10
2018-01-25T23:20:33.104Z,3.10
2018-01-25T23:23:00.762Z,3.10
2018-01-25T23:25:29.134Z,3.30
2018-01-25T23:27:57.502Z,3.30
2018-01-25T23:30:25.428Z,3.30
2018-01-25T23:32:53.026Z,3.40
2018-01-25T23:35:20.624Z,3.40
2018-01-25T23:37:48.308Z,3.40
2018-01-25T23:40:15.902Z,3.40
2018-01-25T23:42:43.531Z,3.40
2018-01-25T23:45:11.906Z,3.50
2018-01-25T23:47:40.281Z,3.50
2018-01-25T23:50:08.639Z,3.50
2018-01-25T23:52:36.301Z,3.50
2018-01-25T23:55:03.953Z,3.50
2018-01-25T23:57:31.543Z,3.50
